createdAt,value
2022-12-01T00:01:21.320Z,49.02
2022-12-01T00:03:49.662Z,48.72
2022-12-01T00:06:19.260Z,48.33
2022-12-01T00:09:07.446Z,48.78
2022-12-01T00:11:36.370Z,48.57
2022-12-01T00:14:04.351Z,48.53
2022-12-01T00:16:32.761Z,48.61
2022-12-01T00:19:00.510Z,47.89
2022-12-01T00:21:28.276Z,49.33
2022-12-01T00:23:57.501Z,49.50
2022-12-01T00:26:27.359Z,49.09
2022-12-01T00:28:57.338Z,49.00
2022-12-01T00:31:25.472Z,49.01
2022-12-01T00:33:53.805Z,48.64
2022-12-01T00:36:21.790Z,48.81
2022-12-01T00:38:53.106Z,49.12
2022-12-01T00:41:21.305Z,49.48
2022-12-01T00:43:50.867Z,49.59
2022-12-01T00:46:18.964Z,49.76
2022-12-01T00:48:46.937Z,49.85
2022-12-01T00:51:14.320Z,49.86
2022-12-01T00:53:41.733Z,49.94
2022-12-01T00:56:09.447Z,50.38
2022-12-01T00:58:37.048Z,50.54
2022-12-01T01:01:04.817Z,51.82
2022-12-01T01:03:32.881Z,51.45
2022-12-01T01:06:05.777Z,51.09
2022-12-01T01:08:33.603Z,51.31
2022-12-01T01:11:01.522Z,50.46
2022-12-01T01:13:29.703Z,50.50
2022-12-01T01:16:02.415Z,51.10
2022-12-01T01:18:30.292Z,51.67
2022-12-01T01:21:03.848Z,51.06
2022-12-01T01:23:31.559Z,51.19
2022-12-01T01:26:05.236Z,51.66
2022-12-01T01:28:33.109Z,51.40
2022-12-01T01:31:06.460Z,51.19
2022-12-01T01:33:33.991Z,50.91
2022-12-01T01:36:02.598Z,50.98
2022-12-01T01:38:31.012Z,51.60
2022-12-01T01:40:58.489Z,52.27
2022-12-01T01:43:51.760Z,52.88
2022-12-01T01:46:30.456Z,52.13
2022-12-01T01:49:04.494Z,51.59
2022-12-01T01:51:50.825Z,51.52
2022-12-01T01:54:25.707Z,51.83
2022-12-01T01:56:54.704Z,52.68
2022-12-01T01:59:30.210Z,52.76
2022-12-01T02:02:03.627Z,52.51
2022-12-01T02:04:33.082Z,52.75
2022-12-01T02:07:00.774Z,53.30
2022-12-01T02:09:29.840Z,52.82
2022-12-01T02:12:07.463Z,52.94
2022-12-01T02:14:47.136Z,53.76
2022-12-01T02:17:18.020Z,54.35
2022-12-01T02:20:13.378Z,54.46
2022-12-01T02:23:05.963Z,54.62
2022-12-01T02:26:04.808Z,54.51
2022-12-01T02:29:01.953Z,55.28
2022-12-01T02:31:48.554Z,54.53
2022-12-01T02:34:30.321Z,55.59
2022-12-01T02:37:05.134Z,56.30
2022-12-01T02:39:37.423Z,56.10
2022-12-01T02:42:34.669Z,55.88
2022-12-01T02:45:06.270Z,56.61
2022-12-01T02:47:34.529Z,56.25
2022-12-01T02:50:03.206Z,57.92
2022-12-01T02:52:30.765Z,57.87
2022-12-01T02:54:58.505Z,57.87
2022-12-01T02:57:26.283Z,57.88
2022-12-01T02:59:55.777Z,57.97
2022-12-01T03:02:42.573Z,58.34
2022-12-01T03:05:17.022Z,58.10
2022-12-01T03:08:07.033Z,57.78
2022-12-01T03:10:45.640Z,57.52
2022-12-01T03:13:40.235Z,57.61
2022-12-01T03:16:14.113Z,58.46
2022-12-01T03:18:46.638Z,58.08
2022-12-01T03:21:33.976Z,58.08
2022-12-01T03:24:05.341Z,57.70
2022-12-01T03:26:34.508Z,57.55
2022-12-01T03:29:15.297Z,57.45
2022-12-01T03:31:46.281Z,56.91
2022-12-01T03:34:38.801Z,56.48
2022-12-01T03:37:15.175Z,56.11
2022-12-01T03:39:42.962Z,55.91
2022-12-01T03:42:19.761Z,56.14
2022-12-01T03:44:54.114Z,55.44
2022-12-01T03:47:32.425Z,54.89
2022-12-01T03:50:00.400Z,54.76
2022-12-01T03:52:28.426Z,55.34
2022-12-01T03:55:32.072Z,54.52
2022-12-01T03:58:07.057Z,54.04
2022-12-01T04:00:34.642Z,54.22
2022-12-01T04:03:04.308Z,54.65
2022-12-01T04:05:34.302Z,54.52
2022-12-01T04:08:02.510Z,54.49
2022-12-01T04:10:30.282Z,53.98
2022-12-01T04:12:59.767Z,54.96
2022-12-01T04:15:28.109Z,54.12
2022-12-01T04:17:55.635Z,54.62
2022-12-01T04:20:23.152Z,54.67
2022-12-01T04:22:50.912Z,54.30
2022-12-01T04:25:18.497Z,55.02
2022-12-01T04:27:45.943Z,55.11
2022-12-01T04:30:14.081Z,55.65
2022-12-01T04:32:42.834Z,55.22
2022-12-01T04:35:11.826Z,55.25
2022-12-01T04:37:40.244Z,54.66
2022-12-01T04:40:08.673Z,54.98
2022-12-01T04:42:36.264Z,55.05
2022-12-01T04:45:04.282Z,54.74
2022-12-01T04:47:32.005Z,54.28
2022-12-01T04:50:00.530Z,54.04
2022-12-01T04:52:32.143Z,54.24
2022-12-01T04:55:03.524Z,54.44
2022-12-01T04:57:31.179Z,54.41
2022-12-01T04:59:58.745Z,53.67
2022-12-01T05:02:26.485Z,53.65
2022-12-01T05:04:54.249Z,53.50
2022-12-01T05:07:21.862Z,53.82
2022-12-01T05:09:49.576Z,53.66
2022-12-01T05:12:17.546Z,53.43
2022-12-01T05:14:46.101Z,53.92
2022-12-01T05:17:13.662Z,53.69
2022-12-01T05:20:00.123Z,53.51
2022-12-01T05:23:03.290Z,53.41
2022-12-01T05:25:15.574Z,54.01
2022-12-01T05:27:42.987Z,53.46
2022-12-01T05:30:11.016Z,53.73
2022-12-01T05:32:38.946Z,53.67
2022-12-01T05:35:07.155Z,54.38
2022-12-01T05:37:34.783Z,53.81
2022-12-01T05:40:02.654Z,54.29
2022-12-01T05:42:30.306Z,54.88
2022-12-01T05:44:57.855Z,54.43
2022-12-01T05:47:25.638Z,55.02
2022-12-01T05:49:53.052Z,54.66
2022-12-01T05:52:20.571Z,54.45
2022-12-01T05:54:48.528Z,54.24
2022-12-01T05:57:16.047Z,54.51
2022-12-01T05:59:43.619Z,54.48
2022-12-01T06:02:11.516Z,54.57
2022-12-01T06:04:39.333Z,53.80
2022-12-01T06:07:06.996Z,53.69
2022-12-01T06:09:34.505Z,53.89
2022-12-01T06:12:02.360Z,56.03
2022-12-01T06:14:29.980Z,55.39
2022-12-01T06:16:57.537Z,55.06
2022-12-01T06:19:25.393Z,54.76
2022-12-01T06:21:53.119Z,55.81
2022-12-01T06:24:20.765Z,55.93
2022-12-01T06:26:48.530Z,56.75
2022-12-01T06:29:16.090Z,57.48
2022-12-01T06:31:43.725Z,57.22
2022-12-01T06:34:12.077Z,57.62
2022-12-01T06:36:39.494Z,57.84
2022-12-01T06:39:11.072Z,57.35
2022-12-01T06:41:39.231Z,57.87
2022-12-01T06:44:06.663Z,57.69
2022-12-01T06:46:34.460Z,57.23
2022-12-01T06:49:02.264Z,57.33
2022-12-01T06:51:30.495Z,57.69
2022-12-01T06:54:03.760Z,57.82
2022-12-01T06:56:33.018Z,57.91
2022-12-01T06:59:01.156Z,57.84
2022-12-01T07:01:28.884Z,58.50
2022-12-01T07:03:56.821Z,58.31
2022-12-01T07:06:24.398Z,58.82
2022-12-01T07:08:53.003Z,58.80
2022-12-01T07:11:21.265Z,58.87
2022-12-01T07:13:50.349Z,59.35
2022-12-01T07:16:18.034Z,59.15
2022-12-01T07:18:46.101Z,59.56
2022-12-01T07:21:15.040Z,57.68
2022-12-01T07:23:42.803Z,58.76
2022-12-01T07:26:12.843Z,59.17
2022-12-01T07:28:40.732Z,59.47
2022-12-01T07:31:10.654Z,58.87
2022-12-01T07:33:40.728Z,59.24
2022-12-01T07:36:08.883Z,57.50
2022-12-01T07:38:37.477Z,58.28
2022-12-01T07:41:19.113Z,59.54
2022-12-01T07:43:48.347Z,59.74
2022-12-01T07:46:22.801Z,59.62
2022-12-01T07:48:52.240Z,59.62
2022-12-01T07:51:21.099Z,59.24
2022-12-01T07:53:49.602Z,58.99
2022-12-01T07:56:17.982Z,58.81
2022-12-01T07:58:46.084Z,58.80
2022-12-01T08:01:20.539Z,58.64
2022-12-01T08:03:50.184Z,58.09
2022-12-01T08:06:18.888Z,57.52
2022-12-01T08:08:46.781Z,57.39
2022-12-01T08:11:17.724Z,57.46
2022-12-01T08:13:45.176Z,57.19
2022-12-01T08:16:15.510Z,56.89
2022-12-01T08:18:43.885Z,57.12
2022-12-01T08:21:13.529Z,56.83
2022-12-01T08:23:42.227Z,56.23
2022-12-01T08:26:15.738Z,56.11
2022-12-01T08:28:43.762Z,55.20
2022-12-01T08:31:13.012Z,55.35
2022-12-01T08:33:40.806Z,55.50
2022-12-01T08:36:08.642Z,55.06
2022-12-01T08:38:36.572Z,54.70
2022-12-01T08:41:06.433Z,53.58
2022-12-01T08:43:56.701Z,53.43
2022-12-01T08:46:22.081Z,53.56
2022-12-01T08:48:49.601Z,52.45
2022-12-01T08:51:19.075Z,52.16
2022-12-01T08:53:49.735Z,51.80
2022-12-01T08:56:30.952Z,51.85
2022-12-01T08:58:58.740Z,52.19
2022-12-01T09:01:26.639Z,51.59
2022-12-01T09:04:08.781Z,49.68
2022-12-01T09:06:41.932Z,49.47
2022-12-01T09:09:11.925Z,50.61
2022-12-01T09:11:40.442Z,49.74
2022-12-01T09:14:07.951Z,48.37
2022-12-01T09:16:35.819Z,46.63
2022-12-01T09:19:04.355Z,46.59
2022-12-01T09:21:33.964Z,45.96
2022-12-01T09:24:02.961Z,45.68
2022-12-01T09:26:30.945Z,44.91
2022-12-01T09:29:01.293Z,46.05
2022-12-01T09:31:29.956Z,46.60
2022-12-01T09:34:00.291Z,46.49
2022-12-01T09:36:29.841Z,47.79
2022-12-01T09:38:57.627Z,47.57
2022-12-01T09:41:33.443Z,46.58
2022-12-01T09:44:39.492Z,45.14
2022-12-01T09:47:30.112Z,46.70
2022-12-01T09:50:09.957Z,45.74
2022-12-01T09:52:43.790Z,45.65
2022-12-01T09:55:16.899Z,46.16
2022-12-01T09:57:48.295Z,46.24
2022-12-01T10:00:18.833Z,45.47
2022-12-01T10:02:54.301Z,46.45
2022-12-01T10:09:13.865Z,47.07
2022-12-01T10:11:42.787Z,47.88
2022-12-01T10:14:20.136Z,47.81
2022-12-01T10:16:54.047Z,48.68
2022-12-01T10:19:33.009Z,48.29
2022-12-01T10:22:17.075Z,49.30
2022-12-01T10:24:55.396Z,47.78
2022-12-01T10:27:29.410Z,47.11
2022-12-01T10:30:06.550Z,45.67
2022-12-01T10:32:57.462Z,48.16
2022-12-01T10:35:29.331Z,44.12
2022-12-01T10:37:59.521Z,44.87
2022-12-01T10:40:28.256Z,46.28
2022-12-01T10:42:55.867Z,46.81
2022-12-01T10:45:26.061Z,44.95
2022-12-01T10:48:15.570Z,42.60
2022-12-01T10:50:49.277Z,44.00
2022-12-01T10:53:23.101Z,44.34
2022-12-01T10:55:59.749Z,45.45
2022-12-01T10:58:27.724Z,46.08
2022-12-01T11:01:02.625Z,46.83
2022-12-01T11:03:33.079Z,48.31
2022-12-01T11:06:02.139Z,47.68
2022-12-01T11:08:53.473Z,46.96
2022-12-01T11:11:36.285Z,45.52
2022-12-01T11:14:25.965Z,47.29
2022-12-01T11:16:54.462Z,45.87
2022-12-01T11:19:34.946Z,45.75
2022-12-01T11:22:19.298Z,45.27
2022-12-01T11:24:53.238Z,45.02
2022-12-01T11:27:23.594Z,45.80
2022-12-01T11:30:04.837Z,46.86
2022-12-01T11:32:38.048Z,45.88
2022-12-01T11:35:20.753Z,47.13
2022-12-01T11:38:27.307Z,45.66
2022-12-01T11:40:49.011Z,44.37
2022-12-01T11:43:35.353Z,44.73
2022-12-01T11:46:06.598Z,43.32
2022-12-01T11:48:36.355Z,44.12
2022-12-01T11:51:12.465Z,43.29
2022-12-01T11:53:42.319Z,45.06
2022-12-01T11:56:15.067Z,44.52
2022-12-01T11:58:42.774Z,45.17
2022-12-01T12:01:41.124Z,44.74
2022-12-01T12:04:30.214Z,43.62
2022-12-01T12:07:28.515Z,47.14
2022-12-01T12:10:07.375Z,45.67
2022-12-01T12:12:59.419Z,45.47
2022-12-01T12:15:30.215Z,45.18
2022-12-01T12:18:23.567Z,46.68
2022-12-01T12:20:58.354Z,44.48
2022-12-01T12:23:48.509Z,44.29
2022-12-01T12:26:23.558Z,44.17
2022-12-01T12:29:27.629Z,44.38
2022-12-01T12:32:21.813Z,43.13
2022-12-01T12:34:53.762Z,42.90
2022-12-01T12:37:41.011Z,44.15
2022-12-01T12:40:33.299Z,44.57
2022-12-01T12:43:21.740Z,42.45
2022-12-01T12:46:19.355Z,42.04
2022-12-01T12:49:19.410Z,43.86
2022-12-01T12:52:19.273Z,43.86
2022-12-01T12:54:57.827Z,44.23
2022-12-01T12:57:39.065Z,43.43
2022-12-01T13:00:16.699Z,43.61
2022-12-01T13:03:21.321Z,43.90
2022-12-01T13:05:59.169Z,44.02
2022-12-01T13:08:49.075Z,44.23
2022-12-01T13:11:24.102Z,45.36
2022-12-01T13:14:06.645Z,43.86
2022-12-01T13:16:38.208Z,43.46
2022-12-01T13:19:13.640Z,44.11
2022-12-01T13:21:44.546Z,44.30
2022-12-01T13:24:19.846Z,44.08
2022-12-01T13:26:54.792Z,44.44
2022-12-01T13:29:24.036Z,44.28
2022-12-01T13:31:53.642Z,44.84
2022-12-01T13:34:25.957Z,43.57
2022-12-01T13:36:54.327Z,43.16
2022-12-01T13:39:27.992Z,43.19
2022-12-01T13:42:22.724Z,44.30
2022-12-01T13:45:17.326Z,44.29
2022-12-01T13:47:50.626Z,44.22
2022-12-01T13:50:43.034Z,44.77
2022-12-01T13:53:37.776Z,44.40
2022-12-01T13:56:25.242Z,45.74
2022-12-01T13:58:54.547Z,44.38
2022-12-01T14:01:22.694Z,44.47
2022-12-01T14:04:03.022Z,45.43
2022-12-01T14:06:38.601Z,46.28
2022-12-01T14:09:15.490Z,46.21
2022-12-01T14:11:56.002Z,45.97
2022-12-01T14:14:26.363Z,44.10
2022-12-01T14:16:59.020Z,45.43
2022-12-01T14:19:33.230Z,45.28
2022-12-01T14:22:02.241Z,43.85
2022-12-01T14:24:38.495Z,45.05
2022-12-01T14:27:06.654Z,45.59
2022-12-01T14:29:38.724Z,46.26
2022-12-01T14:32:09.663Z,45.54
2022-12-01T14:34:37.922Z,44.44
2022-12-01T14:37:16.845Z,45.43
2022-12-01T14:39:47.203Z,46.56
2022-12-01T14:42:44.210Z,47.37
2022-12-01T14:45:16.352Z,47.48
2022-12-01T14:47:47.945Z,48.02
2022-12-01T14:50:23.165Z,48.28
2022-12-01T14:52:56.452Z,48.54
2022-12-01T14:55:38.112Z,48.80
2022-12-01T14:58:08.503Z,48.98
2022-12-01T15:00:37.725Z,49.22
2022-12-01T15:03:09.392Z,49.39
2022-12-01T15:05:40.019Z,49.71
2022-12-01T15:08:49.242Z,50.02
2022-12-01T15:11:26.036Z,49.88
2022-12-01T15:13:56.412Z,50.00
2022-12-01T15:16:26.664Z,50.32
2022-12-01T15:18:54.349Z,50.44
2022-12-01T15:21:30.240Z,50.36
2022-12-01T15:24:06.744Z,50.51
2022-12-01T15:26:37.232Z,50.38
2022-12-01T15:29:17.772Z,50.63
2022-12-01T15:31:47.822Z,50.69
2022-12-01T15:34:18.635Z,50.86
2022-12-01T15:36:46.815Z,50.92
2022-12-01T15:39:20.720Z,51.46
2022-12-01T15:41:53.872Z,51.42
2022-12-01T15:44:27.916Z,51.46
2022-12-01T15:46:56.073Z,51.91
2022-12-01T15:49:30.001Z,51.97
2022-12-01T15:52:10.371Z,52.20
2022-12-01T15:54:38.941Z,52.16
2022-12-01T15:57:07.050Z,52.23
2022-12-01T15:59:38.171Z,52.56
2022-12-01T16:02:30.293Z,52.12
2022-12-01T16:05:01.370Z,52.70
2022-12-01T16:08:11.408Z,52.61
2022-12-01T16:10:33.348Z,53.13
2022-12-01T16:13:45.491Z,53.42
2022-12-01T16:16:47.140Z,53.23
2022-12-01T16:19:17.702Z,53.33
2022-12-01T16:21:51.749Z,53.41
2022-12-01T16:24:36.345Z,53.83
2022-12-01T16:27:15.866Z,53.72
2022-12-01T16:29:50.096Z,53.70
2022-12-01T16:32:45.198Z,54.20
2022-12-01T16:35:26.366Z,54.90
2022-12-01T16:37:55.257Z,54.69
2022-12-01T16:40:26.104Z,54.87
2022-12-01T16:42:54.371Z,55.13
2022-12-01T16:45:23.125Z,55.62
2022-12-01T16:47:50.885Z,55.85
2022-12-01T16:50:20.615Z,56.16
2022-12-01T16:52:48.358Z,56.53
2022-12-01T16:55:41.526Z,56.67
2022-12-01T16:58:09.561Z,56.31
2022-12-01T17:00:37.504Z,56.07
2022-12-01T17:03:05.746Z,55.90
2022-12-01T17:05:37.302Z,56.12
2022-12-01T17:08:05.785Z,56.10
2022-12-01T17:10:35.040Z,56.26
2022-12-01T17:13:03.222Z,56.49
2022-12-01T17:15:31.345Z,56.71
2022-12-01T17:17:59.145Z,56.71
2022-12-01T17:20:26.817Z,56.30
2022-12-01T17:22:54.504Z,56.43
2022-12-01T17:25:22.380Z,56.50
2022-12-01T17:27:51.748Z,56.63
2022-12-01T17:30:19.390Z,56.45
2022-12-01T17:32:47.279Z,56.30
2022-12-01T17:35:15.055Z,56.48
2022-12-01T17:37:43.021Z,56.21
2022-12-01T17:40:14.684Z,56.20
2022-12-01T17:42:46.996Z,56.17
2022-12-01T17:45:18.621Z,56.45
2022-12-01T17:47:46.087Z,56.35
2022-12-01T17:50:13.990Z,56.41
2022-12-01T17:52:41.880Z,56.35
2022-12-01T17:55:10.129Z,56.44
2022-12-01T17:57:37.857Z,56.14
2022-12-01T18:00:06.789Z,56.53
2022-12-01T18:02:35.987Z,56.47
2022-12-01T18:05:04.157Z,56.67
2022-12-01T18:07:31.779Z,56.60
2022-12-01T18:09:59.247Z,56.64
2022-12-01T18:12:26.947Z,56.46
2022-12-01T18:14:54.563Z,56.71
2022-12-01T18:17:22.289Z,56.72
2022-12-01T18:19:50.207Z,56.67
2022-12-01T18:22:17.807Z,56.90
2022-12-01T18:24:45.422Z,57.51
2022-12-01T18:27:13.126Z,57.61
2022-12-01T18:29:42.118Z,57.80
2022-12-01T18:32:11.737Z,57.70
2022-12-01T18:34:39.553Z,57.66
2022-12-01T18:37:07.072Z,57.76
2022-12-01T18:39:36.753Z,57.69
2022-12-01T18:42:06.705Z,57.55
2022-12-01T18:44:34.611Z,57.51
2022-12-01T18:47:03.702Z,57.50
2022-12-01T18:49:32.049Z,57.40
2022-12-01T18:52:00.359Z,57.57
2022-12-01T18:54:27.980Z,57.86
2022-12-01T18:56:59.020Z,57.98
2022-12-01T18:59:27.042Z,57.88
2022-12-01T19:01:54.755Z,57.61
2022-12-01T19:04:22.913Z,57.96
2022-12-01T19:06:50.883Z,58.57
2022-12-01T19:09:20.546Z,59.43
2022-12-01T19:11:48.400Z,59.17
2022-12-01T19:14:18.036Z,58.75
2022-12-01T19:16:46.739Z,58.97
2022-12-01T19:19:15.690Z,58.78
2022-12-01T19:21:45.183Z,58.72
2022-12-01T19:24:13.796Z,58.54
2022-12-01T19:26:46.650Z,58.81
2022-12-01T19:29:14.682Z,58.39
2022-12-01T19:31:42.718Z,58.56
2022-12-01T19:34:10.835Z,58.75
2022-12-01T19:36:38.390Z,58.44
2022-12-01T19:39:07.834Z,58.44
2022-12-01T19:41:38.066Z,58.38
2022-12-01T19:44:06.531Z,58.83
2022-12-01T19:46:34.275Z,59.08
2022-12-01T19:49:02.125Z,59.23
2022-12-01T19:51:35.612Z,59.22
2022-12-01T19:54:05.896Z,59.68
2022-12-01T19:56:34.603Z,59.83
2022-12-01T19:59:03.359Z,60.28
2022-12-01T20:01:30.889Z,60.05
2022-12-01T20:03:58.871Z,60.28
2022-12-01T20:06:29.219Z,60.16
2022-12-01T20:08:59.194Z,60.09
2022-12-01T20:11:29.814Z,59.64
2022-12-01T20:13:57.386Z,60.00
2022-12-01T20:16:26.835Z,59.91
2022-12-01T20:18:55.050Z,59.62
2022-12-01T20:21:28.228Z,59.10
2022-12-01T20:24:05.168Z,59.01
2022-12-01T20:26:38.825Z,59.22
2022-12-01T20:29:09.955Z,58.87
2022-12-01T20:31:37.956Z,59.30
2022-12-01T20:34:09.677Z,59.46
2022-12-01T20:36:38.033Z,60.23
2022-12-01T20:39:06.589Z,59.65
2022-12-01T20:41:34.616Z,59.43
2022-12-01T20:44:06.986Z,59.21
2022-12-01T20:46:36.378Z,59.65
2022-12-01T20:49:04.993Z,59.38
2022-12-01T20:51:33.470Z,59.49
2022-12-01T20:54:27.453Z,59.27
2022-12-01T20:56:53.765Z,59.74
2022-12-01T20:59:21.336Z,59.84
2022-12-01T21:01:48.769Z,59.65
2022-12-01T21:04:16.979Z,59.77
2022-12-01T21:06:44.618Z,60.28
2022-12-01T21:09:13.266Z,59.92
2022-12-01T21:12:05.249Z,60.20
2022-12-01T21:14:32.996Z,59.96
2022-12-01T21:17:08.981Z,59.85
2022-12-01T21:19:50.561Z,59.93
2022-12-01T21:22:19.322Z,59.92
2022-12-01T21:24:51.173Z,59.56
2022-12-01T21:27:19.648Z,59.43
2022-12-01T21:29:49.486Z,59.62
2022-12-01T21:32:23.955Z,59.21
2022-12-01T21:34:52.297Z,59.88
2022-12-01T21:37:24.698Z,59.50
2022-12-01T21:39:53.669Z,60.49
2022-12-01T21:42:25.554Z,59.95
2022-12-01T21:44:53.769Z,59.86
2022-12-01T21:47:27.301Z,60.28
2022-12-01T21:50:00.279Z,59.75
2022-12-01T21:52:40.071Z,60.67
2022-12-01T21:55:17.104Z,60.80
2022-12-01T21:57:53.005Z,60.53
2022-12-01T22:00:28.645Z,60.35
2022-12-01T22:03:22.960Z,60.27
2022-12-01T22:06:21.189Z,60.17
2022-12-01T22:08:41.276Z,59.85
2022-12-01T22:11:14.642Z,59.34
2022-12-01T22:14:25.422Z,60.05
2022-12-01T22:17:05.176Z,60.15
2022-12-01T22:19:36.989Z,60.89
2022-12-01T22:22:22.763Z,60.99
2022-12-01T22:25:20.951Z,61.00
2022-12-01T22:27:49.175Z,61.54
2022-12-01T22:30:20.157Z,61.12
2022-12-01T22:33:03.825Z,61.78
2022-12-01T22:35:31.701Z,62.76
2022-12-01T22:38:11.234Z,63.16
2022-12-01T22:40:40.079Z,62.65
2022-12-01T22:43:17.317Z,61.03
2022-12-01T22:45:47.049Z,62.00
2022-12-01T22:48:35.062Z,61.75
2022-12-01T22:51:21.206Z,62.33
2022-12-01T22:53:49.026Z,61.59
2022-12-01T22:56:23.295Z,62.35
2022-12-01T22:58:51.121Z,62.50
2022-12-01T23:01:27.339Z,62.75
2022-12-01T23:04:08.244Z,62.73
2022-12-01T23:07:28.634Z,63.02
2022-12-01T23:10:16.552Z,62.32
2022-12-01T23:12:45.976Z,61.44
2022-12-01T23:15:27.744Z,62.10
2022-12-01T23:17:55.700Z,62.20
2022-12-01T23:20:28.220Z,62.28
2022-12-01T23:22:57.613Z,62.22
2022-12-01T23:25:27.388Z,62.09
2022-12-01T23:27:59.033Z,62.31
2022-12-01T23:30:27.576Z,62.35
2022-12-01T23:33:22.431Z,62.85
2022-12-01T23:35:59.897Z,62.68
2022-12-01T23:38:38.230Z,62.52
2022-12-01T23:41:32.123Z,62.69
2022-12-01T23:44:38.626Z,62.44
2022-12-01T23:47:20.224Z,62.67
2022-12-01T23:49:48.295Z,61.76
2022-12-01T23:52:20.362Z,62.59
2022-12-01T23:54:48.582Z,62.90
2022-12-01T23:57:21.186Z,62.89
2022-12-01T23:59:50.148Z,62.63
